Time;durP1;ratioP1;P1;durP2;ratioP2;P2;SDS_P1;SDS_P2;PMS_P1;PMS_P2;Temp;Humidity;BMP_temperature;BMP_pressure;BME280_temperature;BME280_humidity;BME280_pressure;Samples;Min_cycle;Max_cycle;Signal;HPM_P1;HPM_P2
2021/11/10 00:00:19;;;;;;;;;;;;;;;20.07;33.92;96393.09;1040387;28;1038;-55
2021/11/10 00:00:50;;;;;;;;;;;;;;;20.08;34.13;96396.53;1036403;28;1310;-59
2021/11/10 00:01:20;;;;;;;;;;;;;;;20.07;33.89;96398.38;1035600;28;753;-58
2021/11/10 00:01:51;;;;;;;;;;;;;;;20.07;33.73;96394.97;1036830;28;1023;-55
2021/11/10 00:02:21;;;;;;;;;;;;;;;20.11;33.86;96393.41;1040236;28;1177;-57
2021/11/10 00:02:52;;;;;;;;;;;;;;;20.09;33.98;96395.50;1040722;28;808;-58
2021/11/10 00:03:23;;;;;;;;;;;;;;;20.12;34.15;96400.25;1040975;28;1335;-57
2021/11/10 00:03:53;;;;;;;;;;;;;;;20.12;34.02;96400.25;1041064;28;867;-54
2021/11/10 00:04:23;;;;;;;;;;;;;;;20.12;34.04;96402.88;1039760;28;1367;-57
2021/11/10 00:04:54;;;;;;;;;;;;;;;20.12;33.86;96400.25;1040720;28;832;-55
2021/11/10 00:05:24;;;;;;;;;;;;;;;20.12;33.86;96405.50;1036603;28;790;-57
2021/11/10 00:05:54;;;;;;;;;;;;;;;20.11;34.00;96396.81;1036632;28;707;-57
2021/11/10 00:06:25;;;;;;;;;;;;;;;20.10;33.97;96397.06;1040494;28;863;-57
2021/11/10 00:06:55;;;;;;;;;;;;;;;20.10;33.84;96399.72;1040748;28;809;-56
2021/11/10 00:07:25;;;;;;;;;;;;;;;20.10;33.82;96397.06;1044943;28;1096;-53
2021/11/10 00:07:56;;;;;;;;;;;;;;;20.09;33.96;96393.66;1044929;28;797;-56
2021/11/10 00:08:26;;;;;;;;;;;;;;;20.09;33.74;96400.75;1044260;28;1029;-55
2021/11/10 00:08:57;;;;;;;;;;;;;;;20.09;33.94;96396.28;1041108;28;868;-56
2021/11/10 00:09:27;;;;;;;;;;;;;;;20.08;33.81;96399.97;1041271;28;801;-57
2021/11/10 00:09:57;;;;;;;;;;;;;;;20.09;33.94;96393.66;1041072;28;784;-55
2021/11/10 00:10:28;;;;;;;;;;;;;;;20.09;33.89;96392.88;1040492;28;797;-57
2021/11/10 00:10:58;;;;;;;;;;;;;;;20.09;33.96;96395.50;1040599;28;686;-57
2021/11/10 00:11:28;;;;;;;;;;;;;;;20.09;33.78;96393.66;1040781;28;856;-53
2021/11/10 00:11:59;;;;;;;;;;;;;;;20.09;34.00;96395.50;1040722;28;1910;-56
2021/11/10 00:12:29;;;;;;;;;;;;;;;20.07;33.89;96398.38;1040211;28;1025;-58
2021/11/10 00:13:48;;;;;;;;;;;;;;;20.09;33.97;96396.28;1041209;28;1121;-58
2021/11/10 00:14:18;;;;;;;;;;;;;;;20.09;33.83;96390.25;1040680;28;943;-55
2021/11/10 00:14:49;;;;;;;;;;;;;;;20.06;33.91;96391.53;1040285;28;722;-57
2021/11/10 00:15:19;;;;;;;;;;;;;;;20.08;33.82;96393.91;1040686;28;801;-57
2021/11/10 00:15:50;;;;;;;;;;;;;;;20.06;33.77;96390.72;1040514;28;966;-57
2021/11/10 00:16:20;;;;;;;;;;;;;;;20.05;33.85;96389.16;1039674;28;913;-55
2021/11/10 00:16:52;;;;;;;;;;;;;;;20.06;34.00;96396.00;1039421;28;821;-56
2021/11/10 00:17:23;;;;;;;;;;;;;;;20.06;33.93;96388.91;1040702;28;788;-56
2021/11/10 00:17:53;;;;;;;;;;;;;;;20.06;33.89;96386.28;1040517;28;851;-56
2021/11/10 00:18:24;;;;;;;;;;;;;;;20.04;33.79;96388.38;1040670;28;768;-55
2021/11/10 00:18:56;;;;;;;;;;;;;;;20.05;33.96;96394.44;1040489;28;850;-55
2021/11/10 00:19:26;;;;;;;;;;;;;;;20.05;33.85;96397.06;1040579;28;851;-54
2021/11/10 00:19:57;;;;;;;;;;;;;;;20.04;33.75;96395.47;1040337;28;1010;-56
2021/11/10 00:20:27;;;;;;;;;;;;;;;20.03;33.74;96394.66;1040734;28;998;-57
2021/11/10 00:20:57;;;;;;;;;;;;;;;20.04;33.97;96400.72;1040495;28;829;-57
2021/11/10 00:21:28;;;;;;;;;;;;;;;20.05;33.81;96400.47;1040773;28;1095;-57
2021/11/10 00:21:58;;;;;;;;;;;;;;;20.06;33.71;96398.63;1040790;28;979;-57
2021/11/10 00:22:28;;;;;;;;;;;;;;;20.07;33.67;96400.22;1040858;28;781;-56
2021/11/10 00:22:59;;;;;;;;;;;;;;;20.05;33.93;96400.47;1040649;28;749;-57
2021/11/10 00:23:29;;;;;;;;;;;;;;;20.07;33.97;96397.59;1040510;28;1234;-57
2021/11/10 00:23:59;;;;;;;;;;;;;;;20.10;33.88;96391.81;1036612;28;1239;-57
2021/11/10 00:24:30;;;;;;;;;;;;;;;20.07;33.75;96394.97;1035931;28;856;-56
2021/11/10 00:25:00;;;;;;;;;;;;;;;20.06;33.83;96391.53;1036343;28;887;-58
2021/11/10 00:25:30;;;;;;;;;;;;;;;20.05;33.76;96394.44;1040234;28;883;-56
2021/11/10 00:26:01;;;;;;;;;;;;;;;20.07;33.84;96392.34;1040716;28;990;-55
2021/11/10 00:26:31;;;;;;;;;;;;;;;20.05;33.81;96399.69;1040722;28;861;-53
2021/11/10 00:27:02;;;;;;;;;;;;;;;20.03;33.76;96393.91;1040535;28;927;-53
2021/11/10 00:27:32;;;;;;;;;;;;;;;20.03;33.83;96389.41;1041114;28;840;-56
2021/11/10 00:28:03;;;;;;;;;;;;;;;20.03;33.78;96392.03;1040827;28;753;-56
2021/11/10 00:28:33;;;;;;;;;;;;;;;20.04;33.68;96395.47;1040693;28;817;-57
2021/11/10 00:29:03;;;;;;;;;;;;;;;20.02;33.90;96390.47;1040468;28;1374;-56
2021/11/10 00:29:34;;;;;;;;;;;;;;;20.03;33.76;96388.63;1040445;28;792;-58
2021/11/10 00:30:04;;;;;;;;;;;;;;;20.04;33.70;96395.47;1040500;28;746;-55
2021/11/10 00:30:35;;;;;;;;;;;;;;;20.06;33.74;96396.00;1040781;28;785;-58
2021/11/10 00:31:05;;;;;;;;;;;;;;;20.04;33.67;96395.47;1039687;28;784;-57
2021/11/10 00:31:36;;;;;;;;;;;;;;;20.03;33.67;96388.63;1040502;28;1503;-57
2021/11/10 00:32:06;;;;;;;;;;;;;;;20.03;33.83;96381.50;1040691;28;947;-54
2021/11/10 00:32:37;;;;;;;;;;;;;;;20.02;33.70;96395.72;1044455;28;1623;-56
2021/11/10 00:33:07;;;;;;;;;;;;;;;20.01;33.67;96388.88;1040386;28;1038;-54
2021/11/10 00:33:37;;;;;;;;;;;;;;;20.01;33.84;96383.59;1040256;28;1253;-55
2021/11/10 00:34:08;;;;;;;;;;;;;;;20.01;33.67;96385.47;1036114;28;785;-57
2021/11/10 00:34:38;;;;;;;;;;;;;;;20.01;33.80;96388.09;1035828;28;734;-54
2021/11/10 00:35:08;;;;;;;;;;;;;;;20.02;33.75;96389.66;1040361;28;1037;-57
2021/11/10 00:35:39;;;;;;;;;;;;;;;20.03;33.91;96386.00;1040324;28;958;-58
2021/11/10 00:36:09;;;;;;;;;;;;;;;20.03;33.77;96383.38;1040529;28;1059;-57
2021/11/10 00:36:40;;;;;;;;;;;;;;;20.02;33.70;96379.13;1040809;28;714;-57
2021/11/10 00:37:10;;;;;;;;;;;;;;;20.01;33.54;96380.19;1040957;28;702;-56
2021/11/10 00:37:40;;;;;;;;;;;;;;;19.99;33.84;96377.78;1040843;28;840;-55
2021/11/10 00:38:11;;;;;;;;;;;;;;;19.99;33.74;96375.16;1040603;28;848;-56
2021/11/10 00:38:41;;;;;;;;;;;;;;;19.99;33.78;96374.41;1040782;28;990;-56
2021/11/10 00:39:11;;;;;;;;;;;;;;;19.98;33.82;96378.06;1040917;28;982;-57
2021/11/10 00:39:42;;;;;;;;;;;;;;;19.96;33.90;96373.06;1040400;28;819;-54
2021/11/10 00:40:12;;;;;;;;;;;;;;;19.96;33.88;96369.63;1040226;28;780;-55
2021/11/10 00:40:43;;;;;;;;;;;;;;;19.95;34.00;96368.03;1040446;28;815;-57
2021/11/10 00:41:13;;;;;;;;;;;;;;;19.97;33.86;96372.00;1040209;28;855;-57
2021/11/10 00:41:44;;;;;;;;;;;;;;;19.98;33.77;96370.97;1040355;28;808;-57
2021/11/10 00:42:14;;;;;;;;;;;;;;;19.99;33.81;96371.75;1040478;28;812;-58
2021/11/10 00:42:45;;;;;;;;;;;;;;;19.97;33.73;96373.84;1040953;28;828;-57
2021/11/10 00:43:15;;;;;;;;;;;;;;;19.95;33.76;96375.91;1040830;28;1193;-57
2021/11/10 00:43:46;;;;;;;;;;;;;;;19.95;33.89;96370.66;1040560;28;1081;-57
2021/11/10 00:44:16;;;;;;;;;;;;;;;19.93;33.84;96373.56;1040608;28;982;-58
2021/11/10 00:44:46;;;;;;;;;;;;;;;19.94;33.86;96376.97;1040530;28;984;-57
2021/11/10 00:45:17;;;;;;;;;;;;;;;19.94;33.82;96379.63;1041004;28;1085;-59
2021/11/10 00:45:47;;;;;;;;;;;;;;;19.94;33.75;96377.78;1040662;28;1009;-56
2021/11/10 00:46:18;;;;;;;;;;;;;;;19.94;33.88;96376.97;1039237;28;776;-57
2021/11/10 00:46:48;;;;;;;;;;;;;;;19.93;33.75;96378.81;1040536;28;1021;-56
2021/11/10 00:47:18;;;;;;;;;;;;;;;19.94;33.90;96374.34;1040408;28;1322;-56
2021/11/10 00:47:49;;;;;;;;;;;;;;;19.93;33.69;96373.56;1040536;28;978;-55
2021/11/10 00:48:19;;;;;;;;;;;;;;;19.93;33.87;96368.28;1040490;28;828;-56
2021/11/10 00:48:49;;;;;;;;;;;;;;;19.95;33.75;96378.56;1040525;28;935;-55
2021/11/10 00:49:19;;;;;;;;;;;;;;;19.94;33.87;96372.53;1040857;28;1081;-55
2021/11/10 00:49:50;;;;;;;;;;;;;;;19.95;33.69;96373.28;1040808;28;994;-58
2021/11/10 00:50:20;;;;;;;;;;;;;;;19.96;33.79;96374.88;1040712;28;710;-55
2021/11/10 00:50:50;;;;;;;;;;;;;;;19.95;33.72;96373.28;1040756;28;1014;-56
2021/11/10 00:51:21;;;;;;;;;;;;;;;19.95;33.81;96378.56;1040841;28;863;-56
2021/11/10 00:51:51;;;;;;;;;;;;;;;19.95;33.86;96376.72;1040012;28;1922;-54
2021/11/10 00:52:21;;;;;;;;;;;;;;;19.94;33.95;96377.78;1040061;28;801;-57
2021/11/10 00:52:52;;;;;;;;;;;;;;;19.94;33.74;96379.63;1040505;28;871;-53
2021/11/10 00:53:22;;;;;;;;;;;;;;;19.93;33.86;96375.38;1040550;28;1308;-57
2021/11/10 00:53:52;;;;;;;;;;;;;;;19.93;33.98;96370.13;1044680;28;776;-54
2021/11/10 00:54:24;;;;;;;;;;;;;;;19.92;34.03;96379.06;1043560;28;760;-54
2021/11/10 00:54:54;;;;;;;;;;;;;;;19.92;33.77;96379.06;1044359;28;1049;-58
2021/11/10 00:55:25;;;;;;;;;;;;;;;19.93;33.79;96372.75;1040854;28;1066;-58
2021/11/10 00:55:55;;;;;;;;;;;;;;;19.92;33.69;96373.81;1040040;28;1006;-55
2021/11/10 00:56:26;;;;;;;;;;;;;;;19.89;33.79;96375.09;1040267;28;832;-57
2021/11/10 00:56:56;;;;;;;;;;;;;;;19.90;33.85;96379.34;1040261;28;919;-58
2021/11/10 00:57:26;;;;;;;;;;;;;;;19.90;33.77;96375.91;1040588;28;742;-56
2021/11/10 00:57:57;;;;;;;;;;;;;;;19.90;33.64;96370.66;1040215;28;906;-55
2021/11/10 00:58:27;;;;;;;;;;;;;;;19.91;33.88;96366.94;1040729;28;856;-55
2021/11/10 00:58:59;;;;;;;;;;;;;;;19.91;33.84;96374.84;1040890;28;999;-53
2021/11/10 00:59:29;;;;;;;;;;;;;;;19.91;33.60;96373.00;1040950;28;908;-55
2021/11/10 00:59:59;;;;;;;;;;;;;;;19.91;33.68;96373.00;1040868;28;776;-55
2021/11/10 01:00:30;;;;;;;;;;;;;;;19.90;33.88;96375.91;1040708;28;982;-57
2021/11/10 01:01:00;;;;;;;;;;;;;;;19.90;33.73;96370.66;1035231;28;1383;-57
2021/11/10 01:01:31;;;;;;;;;;;;;;;19.90;33.97;96376.72;1032252;28;1355;-57
2021/11/10 01:02:01;;;;;;;;;;;;;;;19.89;33.89;96372.47;1028088;28;931;-58
2021/11/10 01:02:31;;;;;;;;;;;;;;;19.91;33.93;96372.22;1028016;28;864;-57
2021/11/10 01:03:02;;;;;;;;;;;;;;;19.91;33.80;96366.94;1036532;28;770;-57
2021/11/10 01:03:33;;;;;;;;;;;;;;;19.92;33.73;96376.44;1040150;28;1522;-58
2021/11/10 01:04:03;;;;;;;;;;;;;;;19.91;33.70;96372.22;1044741;28;724;-58
2021/11/10 01:04:34;;;;;;;;;;;;;;;19.91;33.83;96369.59;1043828;28;974;-58
2021/11/10 01:05:04;;;;;;;;;;;;;;;19.90;33.82;96370.66;1044603;28;614;-58
2021/11/10 01:05:35;;;;;;;;;;;;;;;19.89;33.77;96363.78;1040973;28;1014;-58
2021/11/10 01:06:05;;;;;;;;;;;;;;;19.89;33.89;96366.41;1040702;28;789;-58
2021/11/10 01:06:35;;;;;;;;;;;;;;;19.90;33.73;96368.00;1040693;28;1107;-58
2021/11/10 01:07:05;;;;;;;;;;;;;;;19.90;33.89;96371.44;1040772;28;954;-58
2021/11/10 01:07:36;;;;;;;;;;;;;;;19.90;33.73;96366.19;1040464;28;1054;-58
2021/11/10 01:08:07;;;;;;;;;;;;;;;19.91;33.68;96366.94;1040424;28;1120;-58
2021/11/10 01:08:37;;;;;;;;;;;;;;;19.92;33.82;96365.91;1040074;28;1034;-57
2021/11/10 01:09:10;;;;;;;;;;;;;;;19.89;33.84;96361.94;1040625;28;1014;-58
2021/11/10 01:09:45;;;;;;;;;;;;;;;19.88;33.82;96359.59;1040476;28;991;-58
2021/11/10 01:10:15;;;;;;;;;;;;;;;19.88;33.78;96357.75;1040326;28;890;-57
2021/11/10 01:10:46;;;;;;;;;;;;;;;19.88;33.91;96362.22;1040452;28;1026;-58
2021/11/10 01:11:16;;;;;;;;;;;;;;;19.88;33.79;96367.47;1040135;28;784;-58
2021/11/10 01:11:47;;;;;;;;;;;;;;;19.88;33.69;96368.28;1040751;28;1902;-58
2021/11/10 01:12:17;;;;;;;;;;;;;;;19.88;33.77;96364.84;1040193;28;944;-57
2021/11/10 01:12:48;;;;;;;;;;;;;;;19.86;33.78;96362.47;1040434;28;808;-54
2021/11/10 01:13:18;;;;;;;;;;;;;;;19.85;33.86;96363.50;1040241;28;1289;-56
2021/11/10 01:13:49;;;;;;;;;;;;;;;19.85;33.90;96368.78;1040460;28;1049;-56
2021/11/10 01:14:19;;;;;;;;;;;;;;;19.84;33.65;96361.94;1040155;28;1011;-58
2021/11/10 01:14:49;;;;;;;;;;;;;;;19.86;33.62;96364.31;1039982;28;1045;-58
2021/11/10 01:15:20;;;;;;;;;;;;;;;19.86;33.66;96359.03;1040217;28;836;-58
2021/11/10 01:15:50;;;;;;;;;;;;;;;19.86;33.92;96359.03;1035920;28;1486;-57
2021/11/10 01:16:21;;;;;;;;;;;;;;;19.86;33.76;96364.31;1034775;28;808;-56
2021/11/10 01:16:51;;;;;;;;;;;;;;;19.85;33.75;96352.97;1039855;28;784;-58
2021/11/10 01:17:21;;;;;;;;;;;;;;;19.84;33.64;96361.94;1040110;28;804;-58
2021/11/10 01:17:52;;;;;;;;;;;;;;;19.85;33.84;96360.88;1040464;28;880;-56
2021/11/10 01:18:22;;;;;;;;;;;;;;;19.84;34.02;96353.25;1040074;28;808;-57
2021/11/10 01:18:52;;;;;;;;;;;;;;;19.84;33.75;96355.88;1040466;28;788;-58
2021/11/10 01:19:23;;;;;;;;;;;;;;;19.85;33.71;96358.25;1036183;28;841;-58
2021/11/10 01:19:53;;;;;;;;;;;;;;;19.84;33.67;96356.69;1040314;28;726;-57
2021/11/10 01:20:24;;;;;;;;;;;;;;;19.85;33.88;96354.81;1040415;28;844;-56
2021/11/10 01:20:54;;;;;;;;;;;;;;;19.85;33.68;96357.44;1040303;28;813;-58
2021/11/10 01:21:24;;;;;;;;;;;;;;;19.84;33.72;96363.78;1040205;28;1022;-55
2021/11/10 01:21:55;;;;;;;;;;;;;;;19.85;33.71;96357.44;1040709;28;1093;-56
2021/11/10 01:22:25;;;;;;;;;;;;;;;19.84;33.78;96353.25;1040572;28;1033;-55
2021/11/10 01:22:55;;;;;;;;;;;;;;;19.84;33.75;96355.88;1040764;28;1026;-56
2021/11/10 01:23:27;;;;;;;;;;;;;;;19.84;33.58;96358.50;1040587;28;1648;-58
2021/11/10 01:23:58;;;;;;;;;;;;;;;19.84;33.64;96361.13;1040611;28;871;-58
2021/11/10 01:24:28;;;;;;;;;;;;;;;19.83;33.77;96355.06;1039793;28;963;-55
2021/11/10 01:24:59;;;;;;;;;;;;;;;19.83;33.56;96360.34;1039953;28;1010;-54
2021/11/10 01:25:29;;;;;;;;;;;;;;;19.83;33.87;96359.53;1039686;28;781;-58
2021/11/10 01:25:59;;;;;;;;;;;;;;;19.82;33.78;96357.97;1040148;28;817;-58
2021/11/10 01:26:30;;;;;;;;;;;;;;;19.81;33.76;96353.75;1044033;28;845;-58
2021/11/10 01:27:00;;;;;;;;;;;;;;;19.81;33.74;96359.00;1044573;28;872;-58
2021/11/10 01:27:30;;;;;;;;;;;;;;;19.82;33.64;96357.97;1044281;28;813;-58
2021/11/10 01:28:01;;;;;;;;;;;;;;;19.81;33.71;96351.09;1044405;28;848;-57
2021/11/10 01:28:31;;;;;;;;;;;;;;;19.81;33.88;96359.00;1040783;28;753;-56
2021/11/10 01:29:01;;;;;;;;;;;;;;;19.81;33.76;96361.63;1040679;28;734;-55
2021/11/10 01:29:32;;;;;;;;;;;;;;;19.80;33.72;96350.34;1040601;28;836;-56
2021/11/10 01:30:03;;;;;;;;;;;;;;;19.81;33.85;96354.53;1040573;28;844;-57
2021/11/10 01:30:33;;;;;;;;;;;;;;;19.81;33.64;96351.91;1040735;28;1045;-54
2021/11/10 01:31:04;;;;;;;;;;;;;;;19.80;33.74;96360.88;1039439;28;856;-58
2021/11/10 01:31:34;;;;;;;;;;;;;;;19.79;33.68;96351.38;1040096;28;875;-58
2021/11/10 01:32:05;;;;;;;;;;;;;;;19.78;33.96;96356.91;1044303;28;1961;-57
2021/11/10 01:32:35;;;;;;;;;;;;;;;19.79;33.69;96353.19;1044406;28;903;-56
2021/11/10 01:33:07;;;;;;;;;;;;;;;19.80;33.93;96360.06;1044470;28;721;-57
2021/11/10 01:33:37;;;;;;;;;;;;;;;19.78;33.98;96351.63;1044179;28;1268;-56
2021/11/10 01:34:08;;;;;;;;;;;;;;;19.79;34.08;96355.84;1040440;28;745;-57
2021/11/10 01:34:38;;;;;;;;;;;;;;;19.78;33.96;96354.25;1039803;28;927;-53
2021/11/10 01:35:08;;;;;;;;;;;;;;;19.78;33.87;96352.44;1039866;28;804;-57
2021/11/10 01:35:39;;;;;;;;;;;;;;;19.78;33.83;96351.63;1040242;28;1019;-58
2021/11/10 01:36:09;;;;;;;;;;;;;;;19.79;33.78;96358.47;1040005;28;816;-58
2021/11/10 01:36:39;;;;;;;;;;;;;;;19.79;33.86;96353.19;1039952;28;1066;-53
2021/11/10 01:37:10;;;;;;;;;;;;;;;19.79;33.79;96355.84;1036796;28;780;-55
2021/11/10 01:37:41;;;;;;;;;;;;;;;19.78;33.72;96351.63;1038985;28;837;-58
2021/11/10 01:38:11;;;;;;;;;;;;;;;19.77;33.77;96356.09;1040401;28;859;-57
2021/11/10 01:38:42;;;;;;;;;;;;;;;19.77;33.70;96355.28;1040437;28;1006;-54
2021/11/10 01:39:12;;;;;;;;;;;;;;;19.76;33.91;96354.53;1040081;28;1077;-58
2021/11/10 01:39:43;;;;;;;;;;;;;;;19.76;33.84;96349.25;1040631;28;855;-56
2021/11/10 01:40:13;;;;;;;;;;;;;;;19.77;33.77;96356.09;1040594;28;698;-58
2021/11/10 01:40:44;;;;;;;;;;;;;;;19.78;33.67;96351.63;1040681;28;801;-58
2021/11/10 01:41:14;;;;;;;;;;;;;;;19.77;33.82;96350.03;1039965;28;1292;-56
2021/11/10 01:41:45;;;;;;;;;;;;;;;19.77;33.83;96350.03;1035988;28;1030;-56
2021/11/10 01:42:16;;;;;;;;;;;;;;;19.77;34.09;96356.09;1035603;28;1045;-55
2021/11/10 01:42:46;;;;;;;;;;;;;;;19.76;33.80;96354.53;1036439;28;1018;-58
2021/11/10 01:43:17;;;;;;;;;;;;;;;19.76;33.84;96354.53;1040386;28;1292;-58
2021/11/10 01:43:49;;;;;;;;;;;;;;;19.75;33.95;96352.91;1040129;28;754;-56
2021/11/10 01:44:20;;;;;;;;;;;;;;;19.77;33.83;96353.47;1039257;28;848;-56
2021/11/10 01:44:51;;;;;;;;;;;;;;;19.78;33.61;96349.00;1044465;28;784;-55
2021/11/10 01:45:21;;;;;;;;;;;;;;;19.77;33.94;96355.28;1044109;28;954;-57
2021/11/10 01:45:55;;;;;;;;;;;;;;;19.76;33.71;96349.25;1039544;28;835;-56
2021/11/10 01:46:25;;;;;;;;;;;;;;;19.77;33.75;96356.09;1039879;28;1031;-57
2021/11/10 01:46:56;;;;;;;;;;;;;;;19.77;34.03;96356.09;1040468;28;855;-54
2021/11/10 01:47:27;;;;;;;;;;;;;;;19.75;33.98;96352.91;1039823;28;1038;-57
2021/11/10 01:47:57;;;;;;;;;;;;;;;19.76;33.87;96353.72;1040575;28;792;-56
2021/11/10 01:48:27;;;;;;;;;;;;;;;19.76;33.84;96353.72;1040842;28;1077;-57
2021/11/10 01:48:58;;;;;;;;;;;;;;;19.75;33.67;96357.38;1040620;28;1010;-54
2021/11/10 01:49:29;;;;;;;;;;;;;;;19.74;33.82;96350.56;1040381;28;793;-57
2021/11/10 01:49:59;;;;;;;;;;;;;;;19.74;33.79;96351.31;1044101;28;1182;-56
2021/11/10 01:50:29;;;;;;;;;;;;;;;19.74;33.82;96356.59;1044321;28;1026;-53
2021/11/10 01:50:59;;;;;;;;;;;;;;;19.74;33.88;96355.81;1040010;28;1606;-55
2021/11/10 01:51:30;;;;;;;;;;;;;;;19.74;33.93;96356.59;1036252;28;1725;-57
2021/11/10 01:52:00;;;;;;;;;;;;;;;19.73;33.97;96348.97;1035738;28;1910;-58
2021/11/10 01:52:31;;;;;;;;;;;;;;;19.74;33.72;96342.66;1035848;28;789;-57
2021/11/10 01:53:02;;;;;;;;;;;;;;;19.72;33.86;96350.00;1036377;28;1278;-55
2021/11/10 01:53:32;;;;;;;;;;;;;;;19.73;33.67;96354.22;1036254;28;1186;-58
2021/11/10 01:54:03;;;;;;;;;;;;;;;19.72;34.03;96347.38;1035914;28;755;-56
2021/11/10 01:54:33;;;;;;;;;;;;;;;19.73;34.01;96349.75;1035676;28;785;-56
2021/11/10 01:55:04;;;;;;;;;;;;;;;19.72;33.93;96355.28;1040386;28;1070;-57
2021/11/10 01:55:35;;;;;;;;;;;;;;;19.73;34.05;96349.75;1040550;28;766;-57
2021/11/10 01:56:05;;;;;;;;;;;;;;;19.72;33.73;96353.41;1040257;28;839;-55
2021/11/10 01:56:35;;;;;;;;;;;;;;;19.72;33.85;96352.66;1040664;28;828;-57
2021/11/10 01:57:06;;;;;;;;;;;;;;;19.72;33.75;96352.66;1040219;28;1022;-57
2021/11/10 01:57:37;;;;;;;;;;;;;;;19.73;33.78;96354.22;1040435;28;952;-56
2021/11/10 01:58:08;;;;;;;;;;;;;;;19.73;33.78;96354.22;1040433;28;1009;-58
2021/11/10 01:58:38;;;;;;;;;;;;;;;19.73;33.85;96357.66;1040419;28;804;-58
2021/11/10 01:59:09;;;;;;;;;;;;;;;19.73;34.00;96356.84;1040430;28;1092;-57
2021/11/10 01:59:42;;;;;;;;;;;;;;;19.71;33.73;96351.03;1040651;28;654;-57
2021/11/10 02:00:33;;;;;;;;;;;;;;;19.71;33.79;96357.09;1044147;28;718;-56
2021/11/10 02:01:03;;;;;;;;;;;;;;;19.71;33.77;96351.84;1042248;28;1808;-56
2021/11/10 02:01:43;;;;;;;;;;;;;;;19.71;33.92;96359.75;1044235;28;714;-58
2021/11/10 02:02:20;;;;;;;;;;;;;;;19.72;33.72;96357.91;1039819;28;820;-58
2021/11/10 02:02:51;;;;;;;;;;;;;;;19.70;33.64;96355.50;1040725;28;836;-56
2021/11/10 02:03:21;;;;;;;;;;;;;;;19.69;33.84;96355.78;1040509;28;1253;-56
2021/11/10 02:03:52;;;;;;;;;;;;;;;19.70;33.71;96352.09;1040659;28;824;-55
2021/11/10 02:04:23;;;;;;;;;;;;;;;19.70;33.88;96347.63;1039656;28;833;-57
2021/11/10 02:04:54;;;;;;;;;;;;;;;19.70;33.77;96350.25;1040528;28;831;-55
2021/11/10 02:05:24;;;;;;;;;;;;;;;19.70;33.88;96349.47;1040513;28;805;-57
2021/11/10 02:05:55;;;;;;;;;;;;;;;19.69;33.78;96343.41;1040459;28;805;-55
2021/11/10 02:06:25;;;;;;;;;;;;;;;19.69;33.98;96343.41;1040504;28;852;-58
2021/11/10 02:06:56;;;;;;;;;;;;;;;19.70;33.92;96338.97;1040273;28;843;-58
2021/11/10 02:07:27;;;;;;;;;;;;;;;19.71;33.80;96345.78;1039516;28;797;-52
2021/11/10 02:07:59;;;;;;;;;;;;;;;19.69;33.85;96351.31;1036169;28;2215;-54
2021/11/10 02:08:38;;;;;;;;;;;;;;;19.70;33.69;96347.63;1031912;28;1118;-57
2021/11/10 02:09:11;;;;;;;;;;;;;;;19.69;33.69;96342.63;1033980;28;1364;-57
2021/11/10 02:09:47;;;;;;;;;;;;;;;19.68;33.85;96341.81;1034358;28;1324;-58
2021/11/10 02:10:20;;;;;;;;;;;;;;;19.68;34.15;96346.31;1033140;28;937;-56
2021/11/10 02:11:11;;;;;;;;;;;;;;;19.68;33.78;96333.16;1035968;28;1239;-54
2021/11/10 02:12:01;;;;;;;;;;;;;;;19.67;33.70;96340.25;1039333;28;1997;-58
2021/11/10 02:12:36;;;;;;;;;;;;;;;19.67;34.06;96336.81;1039639;28;1435;-57
2021/11/10 02:13:07;;;;;;;;;;;;;;;19.67;33.82;96339.44;1040259;28;1007;-58
2021/11/10 02:13:39;;;;;;;;;;;;;;;19.66;33.92;96337.88;1040319;28;872;-55
2021/11/10 02:14:09;;;;;;;;;;;;;;;19.66;33.96;96346.53;1040192;28;829;-57
2021/11/10 02:14:40;;;;;;;;;;;;;;;19.67;33.73;96339.44;1039753;28;797;-58
2021/11/10 02:15:14;;;;;;;;;;;;;;;19.68;33.75;96343.69;1044079;28;1607;-57
2021/11/10 02:16:04;;;;;;;;;;;;;;;19.65;33.57;96346.81;1041056;28;1271;-57
2021/11/10 02:16:55;;;;;;;;;;;;;;;19.65;33.69;96342.34;1042370;28;1112;-57
2021/11/10 02:17:46;;;;;;;;;;;;;;;19.64;33.86;96343.38;1040227;28;947;-57
2021/11/10 02:18:16;;;;;;;;;;;;;;;19.64;33.94;96335.47;1040134;28;863;-56
2021/11/10 02:18:47;;;;;;;;;;;;;;;19.67;33.78;96340.25;1040103;28;1874;-57
2021/11/10 02:19:17;;;;;;;;;;;;;;;19.64;34.04;96343.38;1039994;28;1140;-55
2021/11/10 02:19:48;;;;;;;;;;;;;;;19.66;33.85;96343.13;1040129;28;788;-58
2021/11/10 02:20:18;;;;;;;;;;;;;;;19.64;33.88;96339.97;1044182;28;1006;-58
2021/11/10 02:20:49;;;;;;;;;;;;;;;19.64;33.93;96339.97;1040591;28;847;-58
2021/11/10 02:21:23;;;;;;;;;;;;;;;19.63;33.75;96341.81;1043934;28;1470;-55
2021/11/10 02:22:04;;;;;;;;;;;;;;;19.63;33.95;96344.44;1039999;28;1371;-55
2021/11/10 02:22:55;;;;;;;;;;;;;;;19.63;34.03;96344.44;1037697;28;1237;-58
2021/11/10 02:23:45;;;;;;;;;;;;;;;19.63;34.09;96338.38;1040073;28;1335;-57
2021/11/10 02:24:16;;;;;;;;;;;;;;;19.62;34.11;96347.31;1039904;28;764;-57
2021/11/10 02:24:47;;;;;;;;;;;;;;;19.62;33.82;96339.44;1040194;28;1055;-57
2021/11/10 02:25:18;;;;;;;;;;;;;;;19.61;33.89;96336.00;1039878;28;1501;-57
2021/11/10 02:25:57;;;;;;;;;;;;;;;19.63;34.02;96341.00;1035800;28;1156;-56
2021/11/10 02:26:48;;;;;;;;;;;;;;;19.62;34.02;96340.19;1036129;28;1045;-58
2021/11/10 02:27:38;;;;;;;;;;;;;;;19.63;34.05;96338.38;1040356;28;1048;-53
2021/11/10 02:28:28;;;;;;;;;;;;;;;19.62;34.06;96340.19;1041360;28;1251;-57
2021/11/10 02:28:59;;;;;;;;;;;;;;;19.62;33.92;96340.19;1040601;28;785;-59
2021/11/10 02:29:30;;;;;;;;;;;;;;;19.63;33.72;96341.00;1040339;28;816;-56
2021/11/10 02:30:01;;;;;;;;;;;;;;;19.63;33.76;96338.38;1040615;28;773;-58
2021/11/10 02:30:31;;;;;;;;;;;;;;;19.63;33.84;96338.38;1040499;28;852;-55
2021/11/10 02:31:02;;;;;;;;;;;;;;;19.62;33.98;96340.19;1038829;28;1469;-58
2021/11/10 02:31:36;;;;;;;;;;;;;;;19.63;33.74;96338.38;1035975;28;1383;-57
2021/11/10 02:32:12;;;;;;;;;;;;;;;19.62;33.91;96342.84;1035732;28;1404;-58
2021/11/10 02:32:52;;;;;;;;;;;;;;;19.62;33.74;96342.06;1036162;28;824;-58
2021/11/10 02:33:27;;;;;;;;;;;;;;;19.60;34.04;96339.66;1038157;28;1307;-56
2021/11/10 02:34:01;;;;;;;;;;;;;;;19.61;33.78;96336.00;1040151;28;848;-58
2021/11/10 02:34:31;;;;;;;;;;;;;;;19.61;33.81;96341.25;1039781;28;1002;-56
2021/11/10 02:35:02;;;;;;;;;;;;;;;19.62;33.87;96348.09;1038915;28;1416;-57
2021/11/10 02:35:32;;;;;;;;;;;;;;;19.60;33.91;96341.53;1039578;28;1022;-54
2021/11/10 02:36:03;;;;;;;;;;;;;;;19.61;33.89;96340.47;1035673;28;1362;-58
2021/11/10 02:36:34;;;;;;;;;;;;;;;19.60;34.00;96344.16;1036243;28;877;-57
2021/11/10 02:37:04;;;;;;;;;;;;;;;19.60;33.96;96341.53;1040178;28;718;-59
2021/11/10 02:37:35;;;;;;;;;;;;;;;19.60;33.97;96344.16;1039944;28;986;-58
2021/11/10 02:38:06;;;;;;;;;;;;;;;19.60;33.85;96341.53;1044231;28;1108;-57
2021/11/10 02:38:36;;;;;;;;;;;;;;;19.59;34.02;96338.09;1044420;28;1021;-58
2021/11/10 02:39:08;;;;;;;;;;;;;;;19.58;33.74;96340.97;1044289;28;725;-58
2021/11/10 02:39:38;;;;;;;;;;;;;;;19.59;33.81;96337.28;1040463;28;982;-57
2021/11/10 02:40:08;;;;;;;;;;;;;;;19.59;34.13;96339.94;1039900;28;1077;-56
2021/11/10 02:40:39;;;;;;;;;;;;;;;19.58;33.74;96333.09;1040728;28;978;-57
2021/11/10 02:41:09;;;;;;;;;;;;;;;19.59;33.69;96335.47;1040338;28;974;-58
2021/11/10 02:41:40;;;;;;;;;;;;;;;19.59;33.83;96343.34;1040479;28;962;-58
2021/11/10 02:42:10;;;;;;;;;;;;;;;19.59;33.99;96342.56;1040139;28;828;-58
2021/11/10 02:42:40;;;;;;;;;;;;;;;19.58;34.06;96340.97;1040431;28;792;-54
2021/11/10 02:43:11;;;;;;;;;;;;;;;19.58;33.75;96338.34;1040130;28;1248;-56
2021/11/10 02:43:41;;;;;;;;;;;;;;;19.57;33.76;96334.94;1035947;28;804;-53
2021/11/10 02:44:11;;;;;;;;;;;;;;;19.57;34.13;96334.94;1035651;28;847;-57
2021/11/10 02:44:42;;;;;;;;;;;;;;;19.58;34.01;96346.25;1035622;28;826;-58
2021/11/10 02:45:12;;;;;;;;;;;;;;;19.57;33.87;96339.38;1039659;28;873;-54
2021/11/10 02:45:42;;;;;;;;;;;;;;;19.57;33.86;96339.38;1040519;28;1092;-54
2021/11/10 02:46:12;;;;;;;;;;;;;;;19.58;33.97;96341.75;1038747;28;1053;-57
2021/11/10 02:46:43;;;;;;;;;;;;;;;19.57;34.02;96342.81;1040298;28;872;-58
2021/11/10 02:47:14;;;;;;;;;;;;;;;19.58;33.84;96340.97;1040587;28;1033;-58
2021/11/10 02:47:44;;;;;;;;;;;;;;;19.57;33.91;96334.13;1040510;28;1076;-56
2021/11/10 02:48:15;;;;;;;;;;;;;;;19.56;33.96;96343.84;1039998;28;904;-58